sensor_id;sensor_type;location;lat;lon;timestamp;pressure;altitude;pressure_sealevel;temperature;humidity
49949;BME280;35840;45.982;8.890;2022-07-26T00:00:08;97949.47;;;24.53;75.38
49949;BME280;35840;45.982;8.890;2022-07-26T00:02:39;97938.97;;;24.25;76.37
49949;BME280;35840;45.982;8.890;2022-07-26T00:05:15;97949.00;;;24.43;75.80
49949;BME280;35840;45.982;8.890;2022-07-26T00:07:43;97945.50;;;23.86;78.07
49949;BME280;35840;45.982;8.890;2022-07-26T00:10:10;97937.94;;;23.76;77.78
49949;BME280;35840;45.982;8.890;2022-07-26T00:12:37;97943.22;;;24.26;75.72
49949;BME280;35840;45.982;8.890;2022-07-26T00:15:06;97946.00;;;24.18;76.08
49949;BME280;35840;45.982;8.890;2022-07-26T00:17:33;97949.88;;;24.22;75.97
49949;BME280;35840;45.982;8.890;2022-07-26T00:20:00;97948.00;;;24.16;76.03
49949;BME280;35840;45.982;8.890;2022-07-26T00:22:27;97947.22;;;23.94;75.70
49949;BME280;35840;45.982;8.890;2022-07-26T00:25:04;97944.59;;;23.94;75.63
49949;BME280;35840;45.982;8.890;2022-07-26T00:27:33;97937.47;;;23.87;75.21
49949;BME280;35840;45.982;8.890;2022-07-26T00:30:04;97948.59;;;23.53;76.93
49949;BME280;35840;45.982;8.890;2022-07-26T00:32:32;97937.41;;;23.44;76.72
49949;BME280;35840;45.982;8.890;2022-07-26T00:34:58;97931.59;;;23.49;76.82
49949;BME280;35840;45.982;8.890;2022-07-26T00:37:25;97938.59;;;23.42;77.33
49949;BME280;35840;45.982;8.890;2022-07-26T00:39:52;97926.41;;;23.92;75.13
49949;BME280;35840;45.982;8.890;2022-07-26T00:42:18;97922.78;;;24.21;73.44
49949;BME280;35840;45.982;8.890;2022-07-26T00:44:45;97927.19;;;23.93;74.49
49949;BME280;35840;45.982;8.890;2022-07-26T00:47:13;97928.84;;;23.94;74.62
49949;BME280;35840;45.982;8.890;2022-07-26T00:49:41;97934.69;;;23.96;73.73
49949;BME280;35840;45.982;8.890;2022-07-26T00:52:08;97933.88;;;23.73;73.95
49949;BME280;35840;45.982;8.890;2022-07-26T00:54:37;97935.81;;;23.86;73.71
49949;BME280;35840;45.982;8.890;2022-07-26T00:57:06;97929.59;;;23.87;73.40
49949;BME280;35840;45.982;8.890;2022-07-26T00:59:32;97923.50;;;23.65;73.42
49949;BME280;35840;45.982;8.890;2022-07-26T01:02:00;97918.44;;;23.64;73.54
49949;BME280;35840;45.982;8.890;2022-07-26T01:04:27;97920.34;;;23.92;71.90
49949;BME280;35840;45.982;8.890;2022-07-26T01:06:54;97923.56;;;23.50;73.58
49949;BME280;35840;45.982;8.890;2022-07-26T01:09:22;97926.09;;;23.22;75.17
49949;BME280;35840;45.982;8.890;2022-07-26T01:11:49;97920.69;;;23.45;73.79
49949;BME280;35840;45.982;8.890;2022-07-26T01:14:20;97929.56;;;23.66;73.44
49949;BME280;35840;45.982;8.890;2022-07-26T01:16:49;97921.44;;;24.04;71.58
49949;BME280;35840;45.982;8.890;2022-07-26T01:19:16;97923.03;;;23.40;73.00
49949;BME280;35840;45.982;8.890;2022-07-26T01:21:49;97923.19;;;23.53;72.74
49949;BME280;35840;45.982;8.890;2022-07-26T01:24:17;97911.66;;;23.11;74.18
49949;BME280;35840;45.982;8.890;2022-07-26T01:26:43;97914.88;;;23.13;74.78
49949;BME280;35840;45.982;8.890;2022-07-26T01:29:10;97918.75;;;23.17;74.33
49949;BME280;35840;45.982;8.890;2022-07-26T01:31:37;97917.19;;;23.38;73.51
49949;BME280;35840;45.982;8.890;2022-07-26T01:34:03;97916.50;;;23.29;74.10
49949;BME280;35840;45.982;8.890;2022-07-26T01:36:30;97921.06;;;23.42;73.60
49949;BME280;35840;45.982;8.890;2022-07-26T01:38:58;97913.03;;;23.29;72.39
49949;BME280;35840;45.982;8.890;2022-07-26T01:41:24;97928.56;;;22.94;74.28
49949;BME280;35840;45.982;8.890;2022-07-26T01:44:04;97916.53;;;22.84;74.65
49949;BME280;35840;45.982;8.890;2022-07-26T01:46:32;97920.41;;;22.74;73.29
49949;BME280;35840;45.982;8.890;2022-07-26T01:48:59;97916.38;;;22.71;73.68
49949;BME280;35840;45.982;8.890;2022-07-26T01:51:27;97906.03;;;22.99;72.51
49949;BME280;35840;45.982;8.890;2022-07-26T01:53:54;97914.66;;;23.30;71.81
49949;BME280;35840;45.982;8.890;2022-07-26T01:56:20;97915.03;;;23.27;71.23
49949;BME280;35840;45.982;8.890;2022-07-26T01:58:47;97909.22;;;23.31;70.51
49949;BME280;35840;45.982;8.890;2022-07-26T02:01:14;97906.03;;;22.84;72.49
49949;BME280;35840;45.982;8.890;2022-07-26T02:03:41;97899.97;;;22.99;71.17
49949;BME280;35840;45.982;8.890;2022-07-26T02:06:07;97903.03;;;23.02;71.13
49949;BME280;35840;45.982;8.890;2022-07-26T02:08:37;97904.66;;;23.18;70.50
49949;BME280;35840;45.982;8.890;2022-07-26T02:11:04;97891.16;;;22.55;72.20
49949;BME280;35840;45.982;8.890;2022-07-26T02:13:35;97891.25;;;22.77;71.54
49949;BME280;35840;45.982;8.890;2022-07-26T02:16:04;97894.63;;;22.92;70.90
49949;BME280;35840;45.982;8.890;2022-07-26T02:18:31;97895.69;;;23.28;69.94
49949;BME280;35840;45.982;8.890;2022-07-26T02:21:00;97897.34;;;23.14;70.82
49949;BME280;35840;45.982;8.890;2022-07-26T02:23:28;97895.69;;;23.49;70.60
49949;BME280;35840;45.982;8.890;2022-07-26T02:25:54;97890.25;;;23.51;69.82
49949;BME280;35840;45.982;8.890;2022-07-26T02:28:22;97891.53;;;23.03;71.77
49949;BME280;35840;45.982;8.890;2022-07-26T02:30:49;97885.16;;;22.91;72.39
49949;BME280;35840;45.982;8.890;2022-07-26T02:33:17;97874.72;;;23.28;71.96
49949;BME280;35840;45.982;8.890;2022-07-26T02:35:44;97876.31;;;23.72;69.72
49949;BME280;35840;45.982;8.890;2022-07-26T02:38:13;97878.81;;;23.37;70.85
49949;BME280;35840;45.982;8.890;2022-07-26T02:40:41;97873.84;;;23.42;70.37
49949;BME280;35840;45.982;8.890;2022-07-26T02:43:08;97879.22;;;22.82;73.55
49949;BME280;35840;45.982;8.890;2022-07-26T02:45:36;97870.47;;;23.48;71.17
49949;BME280;35840;45.982;8.890;2022-07-26T02:48:03;97873.66;;;22.92;73.23
49949;BME280;35840;45.982;8.890;2022-07-26T02:50:30;97865.50;;;22.65;73.19
49949;BME280;35840;45.982;8.890;2022-07-26T02:52:57;97881.72;;;22.91;72.15
49949;BME280;35840;45.982;8.890;2022-07-26T02:55:25;97862.09;;;23.01;72.07
49949;BME280;35840;45.982;8.890;2022-07-26T02:57:51;97854.00;;;22.66;71.41
49949;BME280;35840;45.982;8.890;2022-07-26T03:00:21;97854.28;;;22.72;70.70
49949;BME280;35840;45.982;8.890;2022-07-26T03:02:48;97852.63;;;22.85;70.35
49949;BME280;35840;45.982;8.890;2022-07-26T03:05:17;97854.56;;;22.77;69.82
49949;BME280;35840;45.982;8.890;2022-07-26T03:07:43;97859.84;;;22.98;69.38
49949;BME280;35840;45.982;8.890;2022-07-26T03:10:10;97854.00;;;22.66;70.45
49949;BME280;35840;45.982;8.890;2022-07-26T03:12:37;97850.22;;;22.69;69.98
49949;BME280;35840;45.982;8.890;2022-07-26T03:15:04;97845.63;;;22.71;70.57
49949;BME280;35840;45.982;8.890;2022-07-26T03:17:32;97835.09;;;23.23;68.39
49949;BME280;35840;45.982;8.890;2022-07-26T03:19:58;97846.28;;;23.53;67.52
49949;BME280;35840;45.982;8.890;2022-07-26T03:22:25;97834.53;;;23.27;68.27
49949;BME280;35840;45.982;8.890;2022-07-26T03:24:52;97846.78;;;23.20;68.32
49949;BME280;35840;45.982;8.890;2022-07-26T03:27:19;97849.31;;;23.13;69.44
49949;BME280;35840;45.982;8.890;2022-07-26T03:29:46;97854.00;;;22.81;70.03
49949;BME280;35840;45.982;8.890;2022-07-26T03:32:12;97859.88;;;22.24;71.72
49949;BME280;35840;45.982;8.890;2022-07-26T03:34:39;97852.44;;;22.35;71.40
49949;BME280;35840;45.982;8.890;2022-07-26T03:37:05;97852.69;;;22.56;71.19
49949;BME280;35840;45.982;8.890;2022-07-26T03:39:32;97858.88;;;22.84;69.73
49949;BME280;35840;45.982;8.890;2022-07-26T03:41:59;97861.44;;;23.36;68.13
49949;BME280;35840;45.982;8.890;2022-07-26T03:44:25;97857.06;;;23.21;68.15
49949;BME280;35840;45.982;8.890;2022-07-26T03:46:52;97866.97;;;23.41;67.92
49949;BME280;35840;45.982;8.890;2022-07-26T03:49:18;97861.25;;;23.81;66.70
49949;BME280;35840;45.982;8.890;2022-07-26T03:51:45;97865.50;;;23.02;69.39
49949;BME280;35840;45.982;8.890;2022-07-26T03:54:12;97867.66;;;22.77;70.77
49949;BME280;35840;45.982;8.890;2022-07-26T03:56:39;97868.84;;;22.74;71.05
49949;BME280;35840;45.982;8.890;2022-07-26T03:59:08;97869.63;;;22.75;71.41
49949;BME280;35840;45.982;8.890;2022-07-26T04:01:37;97860.69;;;23.20;69.74
49949;BME280;35840;45.982;8.890;2022-07-26T04:04:08;97863.53;;;23.04;71.26
49949;BME280;35840;45.982;8.890;2022-07-26T04:06:37;97871.16;;;22.84;72.88
49949;BME280;35840;45.982;8.890;2022-07-26T04:09:05;97865.63;;;22.94;71.28
49949;BME280;35840;45.982;8.890;2022-07-26T04:11:33;97864.16;;;23.06;71.01
49949;BME280;35840;45.982;8.890;2022-07-26T04:14:00;97866.69;;;23.14;70.78
49949;BME280;35840;45.982;8.890;2022-07-26T04:16:27;97865.09;;;23.57;68.79
49949;BME280;35840;45.982;8.890;2022-07-26T04:18:54;97867.06;;;23.76;68.36
49949;BME280;35840;45.982;8.890;2022-07-26T04:21:21;97862.16;;;22.42;73.29
49949;BME280;35840;45.982;8.890;2022-07-26T04:23:48;97868.16;;;22.12;74.02
49949;BME280;35840;45.982;8.890;2022-07-26T04:26:18;97859.69;;;22.25;73.43
49949;BME280;35840;45.982;8.890;2022-07-26T04:28:46;97870.34;;;22.83;71.24
49949;BME280;35840;45.982;8.890;2022-07-26T04:31:13;97870.28;;;23.28;69.72
49949;BME280;35840;45.982;8.890;2022-07-26T04:33:40;97877.41;;;22.83;71.33
49949;BME280;35840;45.982;8.890;2022-07-26T04:36:07;97886.66;;;23.00;71.05
49949;BME280;35840;45.982;8.890;2022-07-26T04:38:34;97872.59;;;22.12;74.73
49949;BME280;35840;45.982;8.890;2022-07-26T04:41:00;97870.63;;;22.74;72.25
49949;BME280;35840;45.982;8.890;2022-07-26T04:43:27;97877.06;;;23.08;70.26
49949;BME280;35840;45.982;8.890;2022-07-26T04:45:54;97870.63;;;22.89;71.31
49949;BME280;35840;45.982;8.890;2022-07-26T04:48:23;97868.03;;;23.10;69.90
49949;BME280;35840;45.982;8.890;2022-07-26T04:50:50;97873.63;;;22.56;71.31
49949;BME280;35840;45.982;8.890;2022-07-26T04:53:16;97863.25;;;22.47;71.68
49949;BME280;35840;45.982;8.890;2022-07-26T04:55:43;97880.31;;;22.43;72.25
49949;BME280;35840;45.982;8.890;2022-07-26T04:58:10;97875.25;;;22.42;72.44
49949;BME280;35840;45.982;8.890;2022-07-26T05:00:37;97879.53;;;22.43;72.83
49949;BME280;35840;45.982;8.890;2022-07-26T05:03:24;97880.56;;;22.18;73.81
49949;BME280;35840;45.982;8.890;2022-07-26T05:05:50;97880.63;;;22.10;74.16
49949;BME280;35840;45.982;8.890;2022-07-26T05:08:17;97874.88;;;22.30;72.97
49949;BME280;35840;45.982;8.890;2022-07-26T05:10:44;97886.34;;;22.44;72.20
49949;BME280;35840;45.982;8.890;2022-07-26T05:13:10;97885.44;;;22.66;74.80
49949;BME280;35840;45.982;8.890;2022-07-26T05:15:37;97885.06;;;22.99;71.83
49949;BME280;35840;45.982;8.890;2022-07-26T05:18:06;97888.19;;;23.10;70.16
49949;BME280;35840;45.982;8.890;2022-07-26T05:20:36;97886.47;;;23.02;70.06
49949;BME280;35840;45.982;8.890;2022-07-26T05:23:03;97871.44;;;22.74;70.40
49949;BME280;35840;45.982;8.890;2022-07-26T05:25:30;97879.38;;;22.81;69.74
49949;BME280;35840;45.982;8.890;2022-07-26T05:27:57;97891.78;;;22.87;70.05
49949;BME280;35840;45.982;8.890;2022-07-26T05:30:24;97884.94;;;22.71;71.00
49949;BME280;35840;45.982;8.890;2022-07-26T05:32:51;97885.44;;;22.81;71.42
49949;BME280;35840;45.982;8.890;2022-07-26T05:35:18;97890.31;;;22.84;71.20
49949;BME280;35840;45.982;8.890;2022-07-26T05:37:45;97882.56;;;22.76;71.09
49949;BME280;35840;45.982;8.890;2022-07-26T05:40:12;97889.94;;;23.02;70.18
49949;BME280;35840;45.982;8.890;2022-07-26T05:42:39;97882.25;;;23.01;70.11
49949;BME280;35840;45.982;8.890;2022-07-26T05:45:06;97884.72;;;22.87;70.48
49949;BME280;35840;45.982;8.890;2022-07-26T05:47:33;97887.84;;;22.98;69.79
49949;BME280;35840;45.982;8.890;2022-07-26T05:49:59;97885.25;;;23.34;69.00
49949;BME280;35840;45.982;8.890;2022-07-26T05:52:26;97888.50;;;23.58;69.75
49949;BME280;35840;45.982;8.890;2022-07-26T05:54:53;97888.88;;;23.77;68.17
49949;BME280;35840;45.982;8.890;2022-07-26T05:57:19;97888.69;;;23.78;67.64
49949;BME280;35840;45.982;8.890;2022-07-26T05:59:46;97894.38;;;23.82;67.67
49949;BME280;35840;45.982;8.890;2022-07-26T06:02:13;97879.94;;;23.71;67.58
49949;BME280;35840;45.982;8.890;2022-07-26T06:04:39;97885.88;;;23.80;67.94
49949;BME280;35840;45.982;8.890;2022-07-26T06:07:06;97900.47;;;24.11;67.18
49949;BME280;35840;45.982;8.890;2022-07-26T06:09:33;97900.88;;;23.86;67.79
49949;BME280;35840;45.982;8.890;2022-07-26T06:12:00;97892.47;;;23.91;67.75
49949;BME280;35840;45.982;8.890;2022-07-26T06:14:26;97897.06;;;24.10;67.45
49949;BME280;35840;45.982;8.890;2022-07-26T06:16:53;97892.94;;;24.01;68.12
49949;BME280;35840;45.982;8.890;2022-07-26T06:19:21;97895.03;;;24.12;68.13
49949;BME280;35840;45.982;8.890;2022-07-26T06:21:47;97886.63;;;24.23;68.00
49949;BME280;35840;45.982;8.890;2022-07-26T06:24:14;97906.63;;;24.53;68.71
49949;BME280;35840;45.982;8.890;2022-07-26T06:26:41;97893.47;;;24.53;69.29
49949;BME280;35840;45.982;8.890;2022-07-26T06:29:08;97899.13;;;24.50;67.89
49949;BME280;35840;45.982;8.890;2022-07-26T06:31:34;97892.84;;;24.44;67.36
49949;BME280;35840;45.982;8.890;2022-07-26T06:34:01;97892.88;;;24.57;66.97
49949;BME280;35840;45.982;8.890;2022-07-26T06:36:28;97890.75;;;24.68;67.44
49949;BME280;35840;45.982;8.890;2022-07-26T06:38:56;97891.78;;;24.73;68.51
49949;BME280;35840;45.982;8.890;2022-07-26T06:41:23;97898.34;;;24.98;67.26
49949;BME280;35840;45.982;8.890;2022-07-26T06:43:50;97895.94;;;25.03;68.94
49949;BME280;35840;45.982;8.890;2022-07-26T06:46:17;97895.34;;;25.07;68.15
49949;BME280;35840;45.982;8.890;2022-07-26T06:48:47;97898.28;;;25.33;67.52
49949;BME280;35840;45.982;8.890;2022-07-26T06:51:22;97886.88;;;25.19;67.46
49949;BME280;35840;45.982;8.890;2022-07-26T06:53:49;97888.22;;;24.95;65.17
49949;BME280;35840;45.982;8.890;2022-07-26T06:56:16;97892.13;;;25.05;65.35
49949;BME280;35840;45.982;8.890;2022-07-26T06:58:43;97883.03;;;25.15;65.68
49949;BME280;35840;45.982;8.890;2022-07-26T07:01:10;97891.63;;;25.43;67.48
49949;BME280;35840;45.982;8.890;2022-07-26T07:03:37;97885.75;;;25.35;67.86
49949;BME280;35840;45.982;8.890;2022-07-26T07:06:04;97895.03;;;25.31;68.08
49949;BME280;35840;45.982;8.890;2022-07-26T07:08:30;97889.41;;;25.54;68.72
49949;BME280;35840;45.982;8.890;2022-07-26T07:10:57;97884.13;;;25.47;68.20
49949;BME280;35840;45.982;8.890;2022-07-26T07:13:24;97891.63;;;25.50;68.36
49949;BME280;35840;45.982;8.890;2022-07-26T07:15:50;97890.66;;;25.65;66.36
49949;BME280;35840;45.982;8.890;2022-07-26T07:18:19;97894.69;;;25.40;64.23
49949;BME280;35840;45.982;8.890;2022-07-26T07:20:45;97883.31;;;25.40;64.73
49949;BME280;35840;45.982;8.890;2022-07-26T07:23:12;97884.94;;;25.54;65.68
49949;BME280;35840;45.982;8.890;2022-07-26T07:25:39;97882.31;;;25.54;67.32
49949;BME280;35840;45.982;8.890;2022-07-26T07:28:05;97881.91;;;25.44;65.51
49949;BME280;35840;45.982;8.890;2022-07-26T07:30:33;97880.09;;;25.58;64.28
49949;BME280;35840;45.982;8.890;2022-07-26T07:32:59;97877.69;;;25.63;65.21
49949;BME280;35840;45.982;8.890;2022-07-26T07:35:28;97878.28;;;25.85;64.64
49949;BME280;35840;45.982;8.890;2022-07-26T07:37:57;97876.28;;;26.01;63.72
49949;BME280;35840;45.982;8.890;2022-07-26T07:40:24;97863.13;;;26.07;64.18
49949;BME280;35840;45.982;8.890;2022-07-26T07:42:51;97876.66;;;26.24;63.07
49949;BME280;35840;45.982;8.890;2022-07-26T07:45:17;97869.97;;;26.15;63.22
49949;BME280;35840;45.982;8.890;2022-07-26T07:47:44;97877.69;;;26.23;61.37
49949;BME280;35840;45.982;8.890;2022-07-26T07:50:11;97861.84;;;26.37;60.75
49949;BME280;35840;45.982;8.890;2022-07-26T07:52:38;97862.25;;;26.34;61.23
49949;BME280;35840;45.982;8.890;2022-07-26T07:55:06;97862.25;;;26.34;62.04
49949;BME280;35840;45.982;8.890;2022-07-26T07:57:53;97871.16;;;26.39;60.24
49949;BME280;35840;45.982;8.890;2022-07-26T08:00:19;97864.81;;;26.54;62.38
49949;BME280;35840;45.982;8.890;2022-07-26T08:02:53;97871.91;;;26.60;61.72
49949;BME280;35840;45.982;8.890;2022-07-26T08:05:20;97863.22;;;26.53;61.98
49949;BME280;35840;45.982;8.890;2022-07-26T08:07:48;97860.72;;;26.64;59.69
49949;BME280;35840;45.982;8.890;2022-07-26T08:10:18;97864.81;;;26.54;59.35
49949;BME280;35840;45.982;8.890;2022-07-26T08:12:44;97864.28;;;26.38;58.43
49949;BME280;35840;45.982;8.890;2022-07-26T08:15:16;97870.50;;;26.51;56.65
49949;BME280;35840;45.982;8.890;2022-07-26T08:17:44;97864.03;;;26.46;58.13
49949;BME280;35840;45.982;8.890;2022-07-26T08:20:19;97863.66;;;26.43;57.36
49949;BME280;35840;45.982;8.890;2022-07-26T08:22:49;97854.09;;;26.55;58.26
49949;BME280;35840;45.982;8.890;2022-07-26T08:25:15;97860.13;;;26.69;57.31
49949;BME280;35840;45.982;8.890;2022-07-26T08:27:42;97847.06;;;26.88;57.29
49949;BME280;35840;45.982;8.890;2022-07-26T08:30:28;97851.00;;;27.10;58.81
49949;BME280;35840;45.982;8.890;2022-07-26T08:32:54;97845.88;;;27.22;56.98
49949;BME280;35840;45.982;8.890;2022-07-26T08:35:21;97840.25;;;27.12;56.45
49949;BME280;35840;45.982;8.890;2022-07-26T08:37:48;97839.00;;;27.14;57.29
49949;BME280;35840;45.982;8.890;2022-07-26T08:40:14;97840.34;;;27.30;57.57
49949;BME280;35840;45.982;8.890;2022-07-26T08:42:54;97835.84;;;27.38;55.68
49949;BME280;35840;45.982;8.890;2022-07-26T08:47:49;97833.56;;;27.41;54.91
49949;BME280;35840;45.982;8.890;2022-07-26T08:50:36;97832.03;;;27.27;54.72
49949;BME280;35840;45.982;8.890;2022-07-26T08:53:03;97829.81;;;27.24;54.98
49949;BME280;35840;45.982;8.890;2022-07-26T08:55:35;97831.22;;;27.26;56.24
49949;BME280;35840;45.982;8.890;2022-07-26T08:58:21;97824.56;;;27.17;55.22
49949;BME280;35840;45.982;8.890;2022-07-26T09:01:02;97829.03;;;27.23;55.89
49949;BME280;35840;45.982;8.890;2022-07-26T09:03:29;97824.06;;;27.34;54.89
49949;BME280;35840;45.982;8.890;2022-07-26T09:06:27;97824.59;;;27.49;55.07
49949;BME280;35840;45.982;8.890;2022-07-26T09:09:09;97817.75;;;27.66;54.01
49949;BME280;35840;45.982;8.890;2022-07-26T09:11:37;97816.56;;;27.62;55.46
49949;BME280;35840;45.982;8.890;2022-07-26T09:14:05;97825.22;;;27.70;55.29
49949;BME280;35840;45.982;8.890;2022-07-26T09:16:32;97818.78;;;27.84;54.02
49949;BME280;35840;45.982;8.890;2022-07-26T09:19:17;97819.75;;;27.90;53.99
49949;BME280;35840;45.982;8.890;2022-07-26T09:21:44;97819.34;;;27.93;54.54
49949;BME280;35840;45.982;8.890;2022-07-26T09:24:12;97814.63;;;27.95;55.05
49949;BME280;35840;45.982;8.890;2022-07-26T09:26:39;97815.06;;;28.17;53.67
49949;BME280;35840;45.982;8.890;2022-07-26T09:29:09;97819.25;;;28.25;53.43
49949;BME280;35840;45.982;8.890;2022-07-26T09:31:38;97807.25;;;28.22;52.16
49949;BME280;35840;45.982;8.890;2022-07-26T09:34:06;97816.09;;;28.34;51.73
49949;BME280;35840;45.982;8.890;2022-07-26T09:36:48;97818.00;;;28.46;52.40
49949;BME280;35840;45.982;8.890;2022-07-26T09:39:15;97812.63;;;28.52;51.08
49949;BME280;35840;45.982;8.890;2022-07-26T09:41:42;97819.63;;;28.65;51.62
49949;BME280;35840;45.982;8.890;2022-07-26T09:44:23;97819.00;;;28.63;51.18
49949;BME280;35840;45.982;8.890;2022-07-26T09:46:56;97815.34;;;28.64;50.63
49949;BME280;35840;45.982;8.890;2022-07-26T09:49:24;97815.16;;;28.59;49.91
49949;BME280;35840;45.982;8.890;2022-07-26T09:52:13;97800.91;;;28.60;51.14
49949;BME280;35840;45.982;8.890;2022-07-26T09:54:40;97809.50;;;28.62;49.32
49949;BME280;35840;45.982;8.890;2022-07-26T09:57:07;97808.13;;;28.72;51.82
49949;BME280;35840;45.982;8.890;2022-07-26T09:59:34;97799.19;;;28.73;47.64
49949;BME280;35840;45.982;8.890;2022-07-26T10:02:01;97807.28;;;28.90;49.57
49949;BME280;35840;45.982;8.890;2022-07-26T10:04:28;97804.03;;;28.88;49.84
49949;BME280;35840;45.982;8.890;2022-07-26T10:06:54;97802.94;;;28.95;50.00
49949;BME280;35840;45.982;8.890;2022-07-26T10:09:24;97811.28;;;29.11;47.93
49949;BME280;35840;45.982;8.890;2022-07-26T10:11:58;97804.91;;;29.12;46.87
49949;BME280;35840;45.982;8.890;2022-07-26T10:14:42;97810.72;;;29.20;49.08
49949;BME280;35840;45.982;8.890;2022-07-26T10:20:03;97807.19;;;29.39;47.53
49949;BME280;35840;45.982;8.890;2022-07-26T10:22:46;97805.03;;;29.47;49.33
49949;BME280;35840;45.982;8.890;2022-07-26T10:27:48;97793.75;;;29.52;46.50
49949;BME280;35840;45.982;8.890;2022-07-26T10:40:57;97784.31;;;29.56;43.94
49949;BME280;35840;45.982;8.890;2022-07-26T10:43:25;97782.69;;;29.55;44.68
49949;BME280;35840;45.982;8.890;2022-07-26T10:48:57;97784.09;;;29.93;44.16
49949;BME280;35840;45.982;8.890;2022-07-26T10:51:30;97781.22;;;29.95;41.82
49949;BME280;35840;45.982;8.890;2022-07-26T10:54:09;97778.34;;;29.84;39.91
49949;BME280;35840;45.982;8.890;2022-07-26T10:56:38;97773.00;;;30.08;42.38
49949;BME280;35840;45.982;8.890;2022-07-26T10:59:05;97772.31;;;30.13;39.90
49949;BME280;35840;45.982;8.890;2022-07-26T11:01:38;97766.78;;;30.02;40.04
49949;BME280;35840;45.982;8.890;2022-07-26T11:04:19;97773.38;;;30.00;39.73
49949;BME280;35840;45.982;8.890;2022-07-26T11:06:46;97770.81;;;30.17;41.37
49949;BME280;35840;45.982;8.890;2022-07-26T11:09:13;97761.72;;;30.42;40.43
49949;BME280;35840;45.982;8.890;2022-07-26T11:11:40;97760.03;;;30.35;40.18
49949;BME280;35840;45.982;8.890;2022-07-26T11:14:14;97754.72;;;30.47;42.80
49949;BME280;35840;45.982;8.890;2022-07-26T11:16:43;97750.53;;;30.51;40.99
49949;BME280;35840;45.982;8.890;2022-07-26T11:19:21;97751.97;;;30.71;38.43
49949;BME280;35840;45.982;8.890;2022-07-26T11:21:58;97746.56;;;30.66;38.17
49949;BME280;35840;45.982;8.890;2022-07-26T11:24:26;97743.75;;;30.72;38.14
49949;BME280;35840;45.982;8.890;2022-07-26T11:26:53;97735.56;;;30.74;38.22
49949;BME280;35840;45.982;8.890;2022-07-26T11:29:28;97739.09;;;30.80;37.04
49949;BME280;35840;45.982;8.890;2022-07-26T11:32:19;97730.56;;;30.78;40.61
49949;BME280;35840;45.982;8.890;2022-07-26T11:35:01;97731.88;;;30.92;39.38
49949;BME280;35840;45.982;8.890;2022-07-26T11:37:28;97733.13;;;31.01;38.21
49949;BME280;35840;45.982;8.890;2022-07-26T11:39:55;97727.00;;;31.18;39.56
49949;BME280;35840;45.982;8.890;2022-07-26T11:42:22;97722.25;;;31.20;36.99
49949;BME280;35840;45.982;8.890;2022-07-26T11:44:49;97717.91;;;31.14;35.33
49949;BME280;35840;45.982;8.890;2022-07-26T11:47:18;97719.59;;;31.20;33.64
49949;BME280;35840;45.982;8.890;2022-07-26T11:49:47;97712.09;;;31.00;34.75
49949;BME280;35840;45.982;8.890;2022-07-26T11:52:33;97718.22;;;31.17;35.44
49949;BME280;35840;45.982;8.890;2022-07-26T11:55:00;97712.13;;;31.17;35.57
49949;BME280;35840;45.982;8.890;2022-07-26T11:57:29;97705.75;;;31.18;36.21
49949;BME280;35840;45.982;8.890;2022-07-26T11:59:57;97706.47;;;31.30;32.68
49949;BME280;35840;45.982;8.890;2022-07-26T12:02:25;97708.16;;;31.36;35.07
49949;BME280;35840;45.982;8.890;2022-07-26T12:05:16;97704.94;;;31.34;34.89
49949;BME280;35840;45.982;8.890;2022-07-26T12:08:01;97694.25;;;31.29;34.83
49949;BME280;35840;45.982;8.890;2022-07-26T12:10:30;97697.41;;;31.26;35.45
49949;BME280;35840;45.982;8.890;2022-07-26T12:13:07;97689.19;;;31.50;35.42
49949;BME280;35840;45.982;8.890;2022-07-26T12:15:47;97692.06;;;31.43;34.78
49949;BME280;35840;45.982;8.890;2022-07-26T12:18:49;97688.53;;;31.37;34.85
49949;BME280;35840;45.982;8.890;2022-07-26T12:21:16;97677.16;;;31.42;35.27
49949;BME280;35840;45.982;8.890;2022-07-26T12:23:47;97667.13;;;31.66;37.25
49949;BME280;35840;45.982;8.890;2022-07-26T12:26:23;97674.84;;;31.68;36.02
49949;BME280;35840;45.982;8.890;2022-07-26T12:28:50;97665.53;;;31.65;34.37
49949;BME280;35840;45.982;8.890;2022-07-26T12:31:30;97660.31;;;31.75;35.86
49949;BME280;35840;45.982;8.890;2022-07-26T12:33:58;97653.53;;;31.85;34.64
49949;BME280;35840;45.982;8.890;2022-07-26T12:36:25;97652.88;;;32.22;35.54
49949;BME280;35840;45.982;8.890;2022-07-26T12:38:58;97655.06;;;32.03;30.65
49949;BME280;35840;45.982;8.890;2022-07-26T12:41:34;97652.28;;;32.15;33.04
49949;BME280;35840;45.982;8.890;2022-07-26T12:44:02;97646.34;;;32.35;31.36
49949;BME280;35840;45.982;8.890;2022-07-26T12:46:33;97644.22;;;32.32;31.71
49949;BME280;35840;45.982;8.890;2022-07-26T12:49:00;97648.69;;;32.26;30.07
49949;BME280;35840;45.982;8.890;2022-07-26T12:51:28;97650.38;;;32.37;31.72
49949;BME280;35840;45.982;8.890;2022-07-26T12:53:56;97646.06;;;32.31;30.29
49949;BME280;35840;45.982;8.890;2022-07-26T12:56:22;97648.63;;;32.21;29.43
49949;BME280;35840;45.982;8.890;2022-07-26T12:58:49;97649.25;;;32.06;30.22
49949;BME280;35840;45.982;8.890;2022-07-26T13:01:16;97648.75;;;32.36;30.67
49949;BME280;35840;45.982;8.890;2022-07-26T13:03:43;97637.94;;;32.16;30.33
49949;BME280;35840;45.982;8.890;2022-07-26T13:06:09;97649.47;;;32.26;31.20
49949;BME280;35840;45.982;8.890;2022-07-26T13:08:36;97643.69;;;32.07;30.57
49949;BME280;35840;45.982;8.890;2022-07-26T13:11:03;97641.03;;;32.35;29.56
49949;BME280;35840;45.982;8.890;2022-07-26T13:13:29;97641.63;;;32.42;29.34
49949;BME280;35840;45.982;8.890;2022-07-26T13:15:56;97638.44;;;32.40;30.15
49949;BME280;35840;45.982;8.890;2022-07-26T13:18:23;97625.94;;;32.40;31.47
49949;BME280;35840;45.982;8.890;2022-07-26T13:20:49;97630.38;;;32.62;31.21
49949;BME280;35840;45.982;8.890;2022-07-26T13:23:16;97626.53;;;32.80;31.82
49949;BME280;35840;45.982;8.890;2022-07-26T13:25:47;97634.38;;;32.97;32.12
49949;BME280;35840;45.982;8.890;2022-07-26T13:28:15;97624.06;;;32.68;32.09
49949;BME280;35840;45.982;8.890;2022-07-26T13:30:42;97618.41;;;32.65;32.10